sensor_id;sensor_type;location;lat;lon;timestamp;P1;durP1;ratioP1;P2;durP2;ratioP2
3101;SDS011;1561;42.666;23.392;2022-09-12T00:02:04;7.57;;;6.97;;
3101;SDS011;1561;42.666;23.392;2022-09-12T00:04:33;7.93;;;7.13;;
3101;SDS011;1561;42.666;23.392;2022-09-12T00:07:00;7.50;;;6.80;;
3101;SDS011;1561;42.666;23.392;2022-09-12T00:09:28;8.63;;;7.83;;
3101;SDS011;1561;42.666;23.392;2022-09-12T00:11:55;8.13;;;7.33;;
3101;SDS011;1561;42.666;23.392;2022-09-12T00:14:24;7.87;;;7.20;;
3101;SDS011;1561;42.666;23.392;2022-09-12T00:16:51;7.70;;;6.90;;
3101;SDS011;1561;42.666;23.392;2022-09-12T00:19:20;8.27;;;7.20;;
3101;SDS011;1561;42.666;23.392;2022-09-12T00:21:48;9.07;;;8.27;;
3101;SDS011;1561;42.666;23.392;2022-09-12T00:24:17;10.20;;;9.20;;
3101;SDS011;1561;42.666;23.392;2022-09-12T00:26:45;10.00;;;9.10;;
3101;SDS011;1561;42.666;23.392;2022-09-12T00:29:16;9.17;;;8.37;;
3101;SDS011;1561;42.666;23.392;2022-09-12T00:31:50;9.30;;;8.50;;
3101;SDS011;1561;42.666;23.392;2022-09-12T00:34:20;10.03;;;9.23;;
3101;SDS011;1561;42.666;23.392;2022-09-12T00:36:50;9.20;;;8.30;;
3101;SDS011;1561;42.666;23.392;2022-09-12T00:39:18;8.80;;;7.57;;
3101;SDS011;1561;42.666;23.392;2022-09-12T00:41:46;7.93;;;7.33;;
3101;SDS011;1561;42.666;23.392;2022-09-12T00:47:20;8.77;;;7.83;;
3101;SDS011;1561;42.666;23.392;2022-09-12T00:49:54;7.90;;;7.10;;
3101;SDS011;1561;42.666;23.392;2022-09-12T00:52:26;8.60;;;7.70;;
3101;SDS011;1561;42.666;23.392;2022-09-12T00:54:57;8.23;;;7.53;;
3101;SDS011;1561;42.666;23.392;2022-09-12T00:57:30;7.20;;;6.53;;
3101;SDS011;1561;42.666;23.392;2022-09-12T01:00:02;7.20;;;6.60;;
3101;SDS011;1561;42.666;23.392;2022-09-12T01:02:38;7.37;;;6.70;;
3101;SDS011;1561;42.666;23.392;2022-09-12T01:05:10;7.77;;;7.17;;
3101;SDS011;1561;42.666;23.392;2022-09-12T01:07:39;7.20;;;6.50;;
3101;SDS011;1561;42.666;23.392;2022-09-12T01:10:09;7.23;;;6.63;;
3101;SDS011;1561;42.666;23.392;2022-09-12T01:12:37;10.20;;;8.90;;
3101;SDS011;1561;42.666;23.392;2022-09-12T01:15:09;7.53;;;6.93;;
3101;SDS011;1561;42.666;23.392;2022-09-12T01:17:41;8.17;;;7.47;;
3101;SDS011;1561;42.666;23.392;2022-09-12T01:20:30;7.90;;;7.10;;
3101;SDS011;1561;42.666;23.392;2022-09-12T01:23:16;8.57;;;7.87;;
3101;SDS011;1561;42.666;23.392;2022-09-12T01:26:14;6.97;;;6.37;;
3101;SDS011;1561;42.666;23.392;2022-09-12T01:29:07;8.07;;;7.23;;
3101;SDS011;1561;42.666;23.392;2022-09-12T01:31:51;7.43;;;6.77;;
3101;SDS011;1561;42.666;23.392;2022-09-12T01:34:30;7.20;;;6.60;;
3101;SDS011;1561;42.666;23.392;2022-09-12T01:37:09;9.80;;;6.83;;
3101;SDS011;1561;42.666;23.392;2022-09-12T01:39:46;7.53;;;6.73;;
3101;SDS011;1561;42.666;23.392;2022-09-12T01:42:19;7.10;;;6.50;;
3101;SDS011;1561;42.666;23.392;2022-09-12T01:44:54;7.23;;;6.50;;
3101;SDS011;1561;42.666;23.392;2022-09-12T01:47:37;7.17;;;6.37;;
3101;SDS011;1561;42.666;23.392;2022-09-12T01:50:07;7.90;;;7.13;;
3101;SDS011;1561;42.666;23.392;2022-09-12T01:52:40;7.13;;;6.53;;
3101;SDS011;1561;42.666;23.392;2022-09-12T01:55:15;6.43;;;5.93;;
3101;SDS011;1561;42.666;23.392;2022-09-12T01:57:48;6.73;;;6.10;;
3101;SDS011;1561;42.666;23.392;2022-09-12T02:00:22;6.60;;;6.00;;
3101;SDS011;1561;42.666;23.392;2022-09-12T02:02:54;6.10;;;5.60;;
3101;SDS011;1561;42.666;23.392;2022-09-12T02:05:30;6.60;;;6.00;;
3101;SDS011;1561;42.666;23.392;2022-09-12T02:08:02;5.93;;;5.53;;
3101;SDS011;1561;42.666;23.392;2022-09-12T02:10:35;6.57;;;6.07;;
3101;SDS011;1561;42.666;23.392;2022-09-12T02:13:10;6.07;;;5.53;;
3101;SDS011;1561;42.666;23.392;2022-09-12T02:15:42;5.97;;;5.57;;
3101;SDS011;1561;42.666;23.392;2022-09-12T02:18:17;6.10;;;5.60;;
3101;SDS011;1561;42.666;23.392;2022-09-12T02:20:58;6.50;;;6.00;;
3101;SDS011;1561;42.666;23.392;2022-09-12T02:23:27;6.03;;;5.53;;
3101;SDS011;1561;42.666;23.392;2022-09-12T02:25:58;6.80;;;6.07;;
3101;SDS011;1561;42.666;23.392;2022-09-12T02:28:29;7.53;;;6.87;;
3101;SDS011;1561;42.666;23.392;2022-09-12T02:31:02;7.30;;;6.60;;
3101;SDS011;1561;42.666;23.392;2022-09-12T02:33:45;7.07;;;6.13;;
3101;SDS011;1561;42.666;23.392;2022-09-12T02:36:21;6.57;;;6.07;;
3101;SDS011;1561;42.666;23.392;2022-09-12T02:38:59;7.37;;;6.77;;
3101;SDS011;1561;42.666;23.392;2022-09-12T02:41:27;6.90;;;6.30;;
3101;SDS011;1561;42.666;23.392;2022-09-12T02:43:55;6.63;;;6.03;;
3101;SDS011;1561;42.666;23.392;2022-09-12T02:46:24;6.93;;;6.33;;
3101;SDS011;1561;42.666;23.392;2022-09-12T02:49:02;7.93;;;6.50;;
3101;SDS011;1561;42.666;23.392;2022-09-12T02:51:31;7.30;;;6.70;;
3101;SDS011;1561;42.666;23.392;2022-09-12T02:53:59;7.10;;;6.50;;
3101;SDS011;1561;42.666;23.392;2022-09-12T02:56:30;6.97;;;6.33;;
3101;SDS011;1561;42.666;23.392;2022-09-12T02:59:01;7.70;;;6.87;;
3101;SDS011;1561;42.666;23.392;2022-09-12T03:01:42;7.10;;;6.40;;
3101;SDS011;1561;42.666;23.392;2022-09-12T03:07:39;7.00;;;6.40;;
3101;SDS011;1561;42.666;23.392;2022-09-12T03:10:20;7.43;;;6.30;;
3101;SDS011;1561;42.666;23.392;2022-09-12T03:13:00;8.30;;;6.57;;
3101;SDS011;1561;42.666;23.392;2022-09-12T03:15:40;7.87;;;6.50;;
3101;SDS011;1561;42.666;23.392;2022-09-12T03:18:23;6.90;;;6.23;;
3101;SDS011;1561;42.666;23.392;2022-09-12T03:21:11;6.60;;;6.07;;
3101;SDS011;1561;42.666;23.392;2022-09-12T03:23:49;8.10;;;7.30;;
3101;SDS011;1561;42.666;23.392;2022-09-12T03:26:27;7.57;;;6.97;;
3101;SDS011;1561;42.666;23.392;2022-09-12T03:28:59;7.33;;;6.50;;
3101;SDS011;1561;42.666;23.392;2022-09-12T03:31:32;7.80;;;6.50;;
3101;SDS011;1561;42.666;23.392;2022-09-12T03:33:59;8.10;;;7.00;;
3101;SDS011;1561;42.666;23.392;2022-09-12T03:36:29;8.03;;;6.97;;
3101;SDS011;1561;42.666;23.392;2022-09-12T03:38:59;9.80;;;6.80;;
3101;SDS011;1561;42.666;23.392;2022-09-12T03:41:31;8.17;;;7.37;;
3101;SDS011;1561;42.666;23.392;2022-09-12T03:44:05;10.73;;;7.53;;
3101;SDS011;1561;42.666;23.392;2022-09-12T03:46:34;9.35;;;8.45;;
3101;SDS011;1561;42.666;23.392;2022-09-12T03:49:01;8.40;;;7.60;;
3101;SDS011;1561;42.666;23.392;2022-09-12T03:51:36;7.90;;;7.20;;
3101;SDS011;1561;42.666;23.392;2022-09-12T03:54:05;8.00;;;7.20;;
3101;SDS011;1561;42.666;23.392;2022-09-12T03:56:44;8.80;;;7.90;;
3101;SDS011;1561;42.666;23.392;2022-09-12T03:59:11;7.50;;;6.90;;
3101;SDS011;1561;42.666;23.392;2022-09-12T04:01:42;8.40;;;7.53;;
3101;SDS011;1561;42.666;23.392;2022-09-12T04:04:10;8.57;;;7.87;;
3101;SDS011;1561;42.666;23.392;2022-09-12T04:06:40;10.90;;;8.37;;
3101;SDS011;1561;42.666;23.392;2022-09-12T04:09:11;8.40;;;7.53;;
3101;SDS011;1561;42.666;23.392;2022-09-12T04:11:48;8.83;;;8.00;;
3101;SDS011;1561;42.666;23.392;2022-09-12T04:14:18;8.03;;;7.23;;
3101;SDS011;1561;42.666;23.392;2022-09-12T04:16:46;8.77;;;7.20;;
3101;SDS011;1561;42.666;23.392;2022-09-12T04:19:15;8.57;;;7.60;;
3101;SDS011;1561;42.666;23.392;2022-09-12T04:21:47;8.80;;;7.90;;
3101;SDS011;1561;42.666;23.392;2022-09-12T04:24:22;8.63;;;7.83;;
3101;SDS011;1561;42.666;23.392;2022-09-12T04:26:51;8.53;;;7.80;;
3101;SDS011;1561;42.666;23.392;2022-09-12T04:29:19;8.23;;;7.53;;
3101;SDS011;1561;42.666;23.392;2022-09-12T04:31:52;8.40;;;7.60;;
3101;SDS011;1561;42.666;23.392;2022-09-12T04:34:20;11.37;;;9.90;;
3101;SDS011;1561;42.666;23.392;2022-09-12T04:36:50;7.93;;;7.17;;
3101;SDS011;1561;42.666;23.392;2022-09-12T04:39:20;8.17;;;7.37;;
3101;SDS011;1561;42.666;23.392;2022-09-12T04:41:47;7.43;;;6.77;;
3101;SDS011;1561;42.666;23.392;2022-09-12T04:44:14;8.93;;;7.97;;
3101;SDS011;1561;42.666;23.392;2022-09-12T04:46:42;6.90;;;6.30;;
3101;SDS011;1561;42.666;23.392;2022-09-12T04:49:13;8.20;;;7.50;;
3101;SDS011;1561;42.666;23.392;2022-09-12T04:51:44;9.27;;;6.45;;
3101;SDS011;1561;42.666;23.392;2022-09-12T04:54:12;6.97;;;6.35;;
3101;SDS011;1561;42.666;23.392;2022-09-12T04:56:44;7.00;;;6.18;;
3101;SDS011;1561;42.666;23.392;2022-09-12T04:59:13;7.13;;;6.43;;
3101;SDS011;1561;42.666;23.392;2022-09-12T05:01:41;8.38;;;6.78;;
3101;SDS011;1561;42.666;23.392;2022-09-12T05:04:08;7.38;;;6.65;;
3101;SDS011;1561;42.666;23.392;2022-09-12T05:06:37;6.47;;;5.88;;
3101;SDS011;1561;42.666;23.392;2022-09-12T05:09:07;13.15;;;6.75;;
3101;SDS011;1561;42.666;23.392;2022-09-12T05:11:41;6.80;;;6.15;;
3101;SDS011;1561;42.666;23.392;2022-09-12T05:14:10;7.75;;;6.97;;
3101;SDS011;1561;42.666;23.392;2022-09-12T05:16:38;7.90;;;7.10;;
3101;SDS011;1561;42.666;23.392;2022-09-12T05:19:09;6.55;;;5.95;;
3101;SDS011;1561;42.666;23.392;2022-09-12T05:21:37;9.07;;;6.72;;
3101;SDS011;1561;42.666;23.392;2022-09-12T05:24:04;6.63;;;6.03;;
3101;SDS011;1561;42.666;23.392;2022-09-12T05:26:31;5.55;;;5.15;;
3101;SDS011;1561;42.666;23.392;2022-09-12T05:28:59;6.15;;;5.55;;
3101;SDS011;1561;42.666;23.392;2022-09-12T05:31:26;11.95;;;9.43;;
3101;SDS011;1561;42.666;23.392;2022-09-12T05:33:55;6.15;;;5.55;;
3101;SDS011;1561;42.666;23.392;2022-09-12T05:36:24;7.85;;;7.20;;
3101;SDS011;1561;42.666;23.392;2022-09-12T05:38:53;6.78;;;5.65;;
3101;SDS011;1561;42.666;23.392;2022-09-12T05:41:25;5.95;;;5.38;;
3101;SDS011;1561;42.666;23.392;2022-09-12T05:43:57;6.18;;;5.22;;
3101;SDS011;1561;42.666;23.392;2022-09-12T05:46:27;6.47;;;5.88;;
3101;SDS011;1561;42.666;23.392;2022-09-12T05:49:00;5.40;;;5.00;;
3101;SDS011;1561;42.666;23.392;2022-09-12T05:51:30;6.38;;;5.88;;
3101;SDS011;1561;42.666;23.392;2022-09-12T05:54:00;6.03;;;5.53;;
3101;SDS011;1561;42.666;23.392;2022-09-12T05:56:33;6.05;;;5.55;;
3101;SDS011;1561;42.666;23.392;2022-09-12T05:59:13;8.77;;;5.40;;
3101;SDS011;1561;42.666;23.392;2022-09-12T06:01:42;5.68;;;4.63;;
3101;SDS011;1561;42.666;23.392;2022-09-12T06:04:10;5.68;;;5.28;;
3101;SDS011;1561;42.666;23.392;2022-09-12T06:06:41;6.70;;;6.07;;
3101;SDS011;1561;42.666;23.392;2022-09-12T06:09:10;6.70;;;6.07;;
3101;SDS011;1561;42.666;23.392;2022-09-12T06:11:38;8.50;;;4.65;;
3101;SDS011;1561;42.666;23.392;2022-09-12T06:14:08;7.03;;;6.05;;
3101;SDS011;1561;42.666;23.392;2022-09-12T06:16:36;5.38;;;5.00;;
3101;SDS011;1561;42.666;23.392;2022-09-12T06:19:05;6.13;;;5.53;;
3101;SDS011;1561;42.666;23.392;2022-09-12T06:21:49;5.90;;;5.40;;
3101;SDS011;1561;42.666;23.392;2022-09-12T06:24:17;6.90;;;6.30;;
3101;SDS011;1561;42.666;23.392;2022-09-12T06:26:47;6.25;;;5.85;;
3101;SDS011;1561;42.666;23.392;2022-09-12T06:29:19;6.53;;;5.93;;
3101;SDS011;1561;42.666;23.392;2022-09-12T06:31:46;6.75;;;6.22;;
3101;SDS011;1561;42.666;23.392;2022-09-12T06:34:19;5.82;;;5.43;;
3101;SDS011;1561;42.666;23.392;2022-09-12T06:36:46;7.57;;;6.88;;
3101;SDS011;1561;42.666;23.392;2022-09-12T06:39:14;5.63;;;5.22;;
3101;SDS011;1561;42.666;23.392;2022-09-12T06:41:44;6.13;;;5.63;;
3101;SDS011;1561;42.666;23.392;2022-09-12T06:44:22;6.80;;;6.20;;
3101;SDS011;1561;42.666;23.392;2022-09-12T06:46:56;7.47;;;5.97;;
3101;SDS011;1561;42.666;23.392;2022-09-12T06:49:22;6.10;;;5.60;;
3101;SDS011;1561;42.666;23.392;2022-09-12T06:51:56;6.78;;;5.72;;
3101;SDS011;1561;42.666;23.392;2022-09-12T06:54:23;6.57;;;6.07;;
3101;SDS011;1561;42.666;23.392;2022-09-12T06:56:52;7.13;;;6.60;;
3101;SDS011;1561;42.666;23.392;2022-09-12T06:59:25;6.47;;;5.97;;
3101;SDS011;1561;42.666;23.392;2022-09-12T07:01:54;6.57;;;5.80;;
3101;SDS011;1561;42.666;23.392;2022-09-12T07:04:21;6.32;;;5.82;;
3101;SDS011;1561;42.666;23.392;2022-09-12T07:06:48;6.88;;;6.22;;
3101;SDS011;1561;42.666;23.392;2022-09-12T07:09:18;6.40;;;5.90;;
3101;SDS011;1561;42.666;23.392;2022-09-12T07:11:46;6.80;;;6.32;;
3101;SDS011;1561;42.666;23.392;2022-09-12T07:14:13;10.02;;;6.20;;
3101;SDS011;1561;42.666;23.392;2022-09-12T07:16:42;5.90;;;5.40;;
3101;SDS011;1561;42.666;23.392;2022-09-12T07:19:13;6.88;;;6.20;;
3101;SDS011;1561;42.666;23.392;2022-09-12T07:24:29;6.50;;;5.90;;
3101;SDS011;1561;42.666;23.392;2022-09-12T07:26:58;5.35;;;4.90;;
3101;SDS011;1561;42.666;23.392;2022-09-12T07:29:26;6.72;;;6.20;;
3101;SDS011;1561;42.666;23.392;2022-09-12T07:31:56;6.03;;;5.53;;
3101;SDS011;1561;42.666;23.392;2022-09-12T07:34:22;6.20;;;5.78;;
3101;SDS011;1561;42.666;23.392;2022-09-12T07:36:50;7.43;;;6.93;;
3101;SDS011;1561;42.666;23.392;2022-09-12T07:39:17;8.32;;;6.28;;
3101;SDS011;1561;42.666;23.392;2022-09-12T07:41:46;6.93;;;6.32;;
3101;SDS011;1561;42.666;23.392;2022-09-12T07:44:15;8.38;;;7.57;;
3101;SDS011;1561;42.666;23.392;2022-09-12T07:46:43;7.53;;;6.95;;
3101;SDS011;1561;42.666;23.392;2022-09-12T07:49:11;12.90;;;7.35;;
3101;SDS011;1561;42.666;23.392;2022-09-12T07:51:40;9.93;;;7.63;;
3101;SDS011;1561;42.666;23.392;2022-09-12T07:54:08;9.35;;;8.65;;
3101;SDS011;1561;42.666;23.392;2022-09-12T07:56:37;7.43;;;6.85;;
3101;SDS011;1561;42.666;23.392;2022-09-12T07:59:05;7.43;;;6.80;;
3101;SDS011;1561;42.666;23.392;2022-09-12T08:01:33;7.05;;;6.55;;
3101;SDS011;1561;42.666;23.392;2022-09-12T08:04:03;7.90;;;7.18;;
3101;SDS011;1561;42.666;23.392;2022-09-12T08:06:34;7.30;;;6.57;;
3101;SDS011;1561;42.666;23.392;2022-09-12T08:09:01;7.45;;;6.63;;
3101;SDS011;1561;42.666;23.392;2022-09-12T08:11:29;6.60;;;6.20;;
3101;SDS011;1561;42.666;23.392;2022-09-12T08:13:57;6.45;;;5.97;;
3101;SDS011;1561;42.666;23.392;2022-09-12T08:16:29;6.50;;;6.00;;
3101;SDS011;1561;42.666;23.392;2022-09-12T08:18:58;7.53;;;7.03;;
3101;SDS011;1561;42.666;23.392;2022-09-12T08:21:28;13.30;;;10.10;;
3101;SDS011;1561;42.666;23.392;2022-09-12T08:24:01;9.65;;;8.63;;
3101;SDS011;1561;42.666;23.392;2022-09-12T08:26:33;8.05;;;7.22;;
3101;SDS011;1561;42.666;23.392;2022-09-12T08:29:15;7.45;;;6.75;;
3101;SDS011;1561;42.666;23.392;2022-09-12T08:31:43;6.88;;;5.72;;
3101;SDS011;1561;42.666;23.392;2022-09-12T08:34:12;7.15;;;6.55;;
3101;SDS011;1561;42.666;23.392;2022-09-12T08:36:43;8.60;;;7.45;;
3101;SDS011;1561;42.666;23.392;2022-09-12T08:39:12;7.85;;;7.05;;
3101;SDS011;1561;42.666;23.392;2022-09-12T08:41:53;6.97;;;6.47;;
3101;SDS011;1561;42.666;23.392;2022-09-12T08:44:26;5.90;;;5.40;;
3101;SDS011;1561;42.666;23.392;2022-09-12T08:50:02;5.65;;;5.15;;
3101;SDS011;1561;42.666;23.392;2022-09-12T08:52:37;5.88;;;5.38;;
3101;SDS011;1561;42.666;23.392;2022-09-12T08:55:26;6.32;;;5.80;;
3101;SDS011;1561;42.666;23.392;2022-09-12T08:57:57;6.60;;;6.00;;
3101;SDS011;1561;42.666;23.392;2022-09-12T09:00:32;8.23;;;6.40;;
3101;SDS011;1561;42.666;23.392;2022-09-12T09:03:11;6.50;;;6.00;;
3101;SDS011;1561;42.666;23.392;2022-09-12T09:06:05;6.78;;;6.18;;
3101;SDS011;1561;42.666;23.392;2022-09-12T09:08:45;7.88;;;6.53;;
3101;SDS011;1561;42.666;23.392;2022-09-12T09:11:25;9.98;;;8.43;;
3101;SDS011;1561;42.666;23.392;2022-09-12T09:14:07;5.88;;;5.47;;
3101;SDS011;1561;42.666;23.392;2022-09-12T09:17:06;5.68;;;5.28;;
3101;SDS011;1561;42.666;23.392;2022-09-12T09:19:38;5.22;;;4.93;;
3101;SDS011;1561;42.666;23.392;2022-09-12T09:22:11;5.60;;;5.20;;
3101;SDS011;1561;42.666;23.392;2022-09-12T09:24:43;4.97;;;4.68;;
3101;SDS011;1561;42.666;23.392;2022-09-12T09:27:19;6.13;;;5.50;;
3101;SDS011;1561;42.666;23.392;2022-09-12T09:29:55;6.03;;;5.63;;
3101;SDS011;1561;42.666;23.392;2022-09-12T09:32:25;7.07;;;6.35;;
3101;SDS011;1561;42.666;23.392;2022-09-12T09:34:54;7.28;;;6.65;;
3101;SDS011;1561;42.666;23.392;2022-09-12T09:37:26;6.47;;;6.07;;
3101;SDS011;1561;42.666;23.392;2022-09-12T09:40:04;6.80;;;6.30;;
3101;SDS011;1561;42.666;23.392;2022-09-12T09:42:49;6.60;;;5.95;;
3101;SDS011;1561;42.666;23.392;2022-09-12T09:45:26;7.00;;;6.50;;
3101;SDS011;1561;42.666;23.392;2022-09-12T09:47:56;13.73;;;9.70;;
3101;SDS011;1561;42.666;23.392;2022-09-12T09:50:30;6.30;;;5.90;;
3101;SDS011;1561;42.666;23.392;2022-09-12T09:52:58;6.22;;;5.72;;
3101;SDS011;1561;42.666;23.392;2022-09-12T09:55:29;6.95;;;6.45;;
3101;SDS011;1561;42.666;23.392;2022-09-12T09:58:08;5.75;;;5.32;;
3101;SDS011;1561;42.666;23.392;2022-09-12T10:00:39;6.63;;;6.10;;
3101;SDS011;1561;42.666;23.392;2022-09-12T10:03:24;6.05;;;5.65;;
3101;SDS011;1561;42.666;23.392;2022-09-12T10:05:58;6.07;;;5.68;;
3101;SDS011;1561;42.666;23.392;2022-09-12T10:08:35;5.85;;;5.45;;
3101;SDS011;1561;42.666;23.392;2022-09-12T10:11:04;6.80;;;6.35;;
3101;SDS011;1561;42.666;23.392;2022-09-12T10:13:40;5.70;;;5.22;;
3101;SDS011;1561;42.666;23.392;2022-09-12T10:16:22;7.18;;;6.68;;
3101;SDS011;1561;42.666;23.392;2022-09-12T10:18:52;7.60;;;6.82;;
3101;SDS011;1561;42.666;23.392;2022-09-12T10:21:29;6.03;;;5.38;;
3101;SDS011;1561;42.666;23.392;2022-09-12T10:24:00;5.88;;;5.47;;
3101;SDS011;1561;42.666;23.392;2022-09-12T10:27:13;6.10;;;5.50;;
3101;SDS011;1561;42.666;23.392;2022-09-12T10:30:29;6.22;;;5.72;;
3101;SDS011;1561;42.666;23.392;2022-09-12T10:33:14;7.05;;;6.45;;
3101;SDS011;1561;42.666;23.392;2022-09-12T10:35:43;6.60;;;6.20;;
3101;SDS011;1561;42.666;23.392;2022-09-12T10:38:15;6.78;;;6.38;;
3101;SDS011;1561;42.666;23.392;2022-09-12T10:40:59;7.38;;;6.88;;
3101;SDS011;1561;42.666;23.392;2022-09-12T10:43:49;6.28;;;5.78;;
3101;SDS011;1561;42.666;23.392;2022-09-12T10:46:25;7.93;;;6.80;;
3101;SDS011;1561;42.666;23.392;2022-09-12T10:49:18;7.35;;;6.70;;
3101;SDS011;1561;42.666;23.392;2022-09-12T10:51:56;10.60;;;8.55;;
3101;SDS011;1561;42.666;23.392;2022-09-12T10:54:42;7.07;;;6.45;;
3101;SDS011;1561;42.666;23.392;2022-09-12T10:57:19;5.63;;;5.22;;
3101;SDS011;1561;42.666;23.392;2022-09-12T11:00:01;6.05;;;5.65;;
3101;SDS011;1561;42.666;23.392;2022-09-12T11:02:53;6.60;;;5.57;;
3101;SDS011;1561;42.666;23.392;2022-09-12T11:05:32;5.70;;;5.40;;
3101;SDS011;1561;42.666;23.392;2022-09-12T11:08:15;5.93;;;5.53;;
3101;SDS011;1561;42.666;23.392;2022-09-12T11:10:59;6.53;;;6.03;;
3101;SDS011;1561;42.666;23.392;2022-09-12T11:13:41;6.75;;;6.15;;
3101;SDS011;1561;42.666;23.392;2022-09-12T11:16:25;7.65;;;7.05;;
3101;SDS011;1561;42.666;23.392;2022-09-12T11:21:53;7.18;;;6.68;;
3101;SDS011;1561;42.666;23.392;2022-09-12T11:24:51;7.15;;;6.65;;
3101;SDS011;1561;42.666;23.392;2022-09-12T11:27:44;6.75;;;6.25;;
3101;SDS011;1561;42.666;23.392;2022-09-12T11:30:27;7.57;;;7.07;;
3101;SDS011;1561;42.666;23.392;2022-09-12T11:33:13;7.57;;;6.97;;
3101;SDS011;1561;42.666;23.392;2022-09-12T11:35:57;7.00;;;6.40;;
3101;SDS011;1561;42.666;23.392;2022-09-12T11:38:37;7.75;;;7.13;;
3101;SDS011;1561;42.666;23.392;2022-09-12T11:41:17;6.80;;;6.25;;
3101;SDS011;1561;42.666;23.392;2022-09-12T11:43:56;6.57;;;6.18;;
3101;SDS011;1561;42.666;23.392;2022-09-12T11:46:29;6.88;;;6.38;;
3101;SDS011;1561;42.666;23.392;2022-09-12T11:49:01;6.47;;;5.57;;
3101;SDS011;1561;42.666;23.392;2022-09-12T11:51:39;7.50;;;6.90;;
3101;SDS011;1561;42.666;23.392;2022-09-12T11:54:13;11.88;;;9.27;;
3101;SDS011;1561;42.666;23.392;2022-09-12T11:56:52;9.65;;;8.00;;
3101;SDS011;1561;42.666;23.392;2022-09-12T11:59:35;7.57;;;6.88;;
3101;SDS011;1561;42.666;23.392;2022-09-12T12:02:10;9.15;;;8.25;;
3101;SDS011;1561;42.666;23.392;2022-09-12T12:04:41;7.10;;;6.50;;
3101;SDS011;1561;42.666;23.392;2022-09-12T12:07:20;7.70;;;7.10;;
3101;SDS011;1561;42.666;23.392;2022-09-12T12:09:50;6.68;;;6.18;;
3101;SDS011;1561;42.666;23.392;2022-09-12T12:12:20;5.80;;;5.40;;
3101;SDS011;1561;42.666;23.392;2022-09-12T12:14:53;5.85;;;5.45;;
3101;SDS011;1561;42.666;23.392;2022-09-12T12:17:22;6.55;;;6.05;;
3101;SDS011;1561;42.666;23.392;2022-09-12T12:19:57;7.00;;;6.43;;
3101;SDS011;1561;42.666;23.392;2022-09-12T12:22:29;6.18;;;5.75;;
3101;SDS011;1561;42.666;23.392;2022-09-12T12:25:21;6.30;;;5.90;;
3101;SDS011;1561;42.666;23.392;2022-09-12T12:27:53;5.82;;;5.50;;
3101;SDS011;1561;42.666;23.392;2022-09-12T12:36:41;3.88;;;3.60;;
3101;SDS011;1561;42.666;23.392;2022-09-12T12:48:22;6.38;;;5.88;;
3101;SDS011;1561;42.666;23.392;2022-09-12T12:50:50;7.38;;;6.68;;
3101;SDS011;1561;42.666;23.392;2022-09-12T12:53:18;6.95;;;6.35;;
3101;SDS011;1561;42.666;23.392;2022-09-12T12:55:49;6.30;;;5.78;;
3101;SDS011;1561;42.666;23.392;2022-09-12T13:01:09;6.20;;;5.70;;
3101;SDS011;1561;42.666;23.392;2022-09-12T13:03:51;6.50;;;6.10;;
3101;SDS011;1561;42.666;23.392;2022-09-12T13:06:24;7.93;;;7.25;;
3101;SDS011;1561;42.666;23.392;2022-09-12T13:08:59;8.73;;;6.55;;
3101;SDS011;1561;42.666;23.392;2022-09-12T13:11:32;6.93;;;6.43;;
3101;SDS011;1561;42.666;23.392;2022-09-12T13:14:04;6.00;;;5.70;;
3101;SDS011;1561;42.666;23.392;2022-09-12T13:16:35;6.47;;;5.85;;
3101;SDS011;1561;42.666;23.392;2022-09-12T13:19:10;6.47;;;5.90;;
3101;SDS011;1561;42.666;23.392;2022-09-12T13:21:53;6.28;;;5.88;;
3101;SDS011;1561;42.666;23.392;2022-09-12T13:24:25;17.13;;;12.25;;
3101;SDS011;1561;42.666;23.392;2022-09-12T13:26:54;19.85;;;13.57;;
3101;SDS011;1561;42.666;23.392;2022-09-12T13:29:22;8.80;;;8.10;;
3101;SDS011;1561;42.666;23.392;2022-09-12T13:31:59;8.90;;;8.20;;
3101;SDS011;1561;42.666;23.392;2022-09-12T13:34:33;8.93;;;8.13;;
3101;SDS011;1561;42.666;23.392;2022-09-12T13:37:12;11.82;;;8.93;;
3101;SDS011;1561;42.666;23.392;2022-09-12T13:40:09;8.45;;;7.70;;
3101;SDS011;1561;42.666;23.392;2022-09-12T13:43:05;15.20;;;12.50;;
3101;SDS011;1561;42.666;23.392;2022-09-12T13:45:40;6.93;;;6.43;;
3101;SDS011;1561;42.666;23.392;2022-09-12T13:48:12;7.55;;;7.05;;
3101;SDS011;1561;42.666;23.392;2022-09-12T13:50:49;7.13;;;6.63;;
3101;SDS011;1561;42.666;23.392;2022-09-12T13:53:22;7.32;;;6.75;;
3101;SDS011;1561;42.666;23.392;2022-09-12T13:55:54;8.60;;;7.90;;
3101;SDS011;1561;42.666;23.392;2022-09-12T13:58:25;8.50;;;7.70;;
3101;SDS011;1561;42.666;23.392;2022-09-12T14:01:03;6.75;;;6.15;;
3101;SDS011;1561;42.666;23.392;2022-09-12T14:03:32;8.18;;;7.57;;
3101;SDS011;1561;42.666;23.392;2022-09-12T14:06:23;9.30;;;8.60;;
3101;SDS011;1561;42.666;23.392;2022-09-12T14:08:52;10.02;;;9.18;;
3101;SDS011;1561;42.666;23.392;2022-09-12T14:11:22;8.77;;;8.18;;
3101;SDS011;1561;42.666;23.392;2022-09-12T14:13:54;8.70;;;8.05;;
3101;SDS011;1561;42.666;23.392;2022-09-12T14:16:24;9.75;;;8.95;;
3101;SDS011;1561;42.666;23.392;2022-09-12T14:18:54;8.73;;;8.13;;
3101;SDS011;1561;42.666;23.392;2022-09-12T14:21:31;8.05;;;7.45;;
3101;SDS011;1561;42.666;23.392;2022-09-12T14:24:03;8.18;;;7.57;;
3101;SDS011;1561;42.666;23.392;2022-09-12T14:26:32;8.85;;;8.25;;
3101;SDS011;1561;42.666;23.392;2022-09-12T14:29:03;8.63;;;7.93;;
3101;SDS011;1561;42.666;23.392;2022-09-12T14:31:34;9.80;;;8.80;;
3101;SDS011;1561;42.666;23.392;2022-09-12T14:34:10;8.85;;;8.25;;
3101;SDS011;1561;42.666;23.392;2022-09-12T14:36:43;8.20;;;7.60;;
3101;SDS011;1561;42.666;23.392;2022-09-12T14:39:27;8.07;;;7.55;;
3101;SDS011;1561;42.666;23.392;2022-09-12T14:42:01;8.15;;;7.55;;
3101;SDS011;1561;42.666;23.392;2022-09-12T14:44:34;8.57;;;7.88;;
3101;SDS011;1561;42.666;23.392;2022-09-12T14:47:10;8.90;;;8.30;;
3101;SDS011;1561;42.666;23.392;2022-09-12T14:49:44;8.45;;;7.85;;
3101;SDS011;1561;42.666;23.392;2022-09-12T14:55:01;9.20;;;8.50;;
3101;SDS011;1561;42.666;23.392;2022-09-12T14:57:31;9.00;;;8.23;;
3101;SDS011;1561;42.666;23.392;2022-09-12T15:02:55;8.52;;;7.72;;
3101;SDS011;1561;42.666;23.392;2022-09-12T15:05:54;9.07;;;8.32;;
3101;SDS011;1561;42.666;23.392;2022-09-12T15:08:24;9.68;;;8.93;;
3101;SDS011;1561;42.666;23.392;2022-09-12T15:10:53;8.50;;;7.90;;
3101;SDS011;1561;42.666;23.392;2022-09-12T15:13:23;8.95;;;8.15;;
3101;SDS011;1561;42.666;23.392;2022-09-12T15:15:57;7.75;;;7.25;;
3101;SDS011;1561;42.666;23.392;2022-09-12T15:18:27;7.78;;;7.18;;
3101;SDS011;1561;42.666;23.392;2022-09-12T15:20:59;8.93;;;8.23;;
3101;SDS011;1561;42.666;23.392;2022-09-12T15:23:36;8.48;;;7.78;;
3101;SDS011;1561;42.666;23.392;2022-09-12T15:26:09;8.88;;;8.18;;
3101;SDS011;1561;42.666;23.392;2022-09-12T15:28:38;8.43;;;7.72;;
3101;SDS011;1561;42.666;23.392;2022-09-12T15:31:10;9.35;;;8.35;;
3101;SDS011;1561;42.666;23.392;2022-09-12T15:33:42;9.02;;;8.32;;
3101;SDS011;1561;42.666;23.392;2022-09-12T15:36:12;9.25;;;8.55;;
3101;SDS011;1561;42.666;23.392;2022-09-12T15:38:46;8.32;;;7.53;;
3101;SDS011;1561;42.666;23.392;2022-09-12T15:41:14;8.55;;;7.85;;
3101;SDS011;1561;42.666;23.392;2022-09-12T15:43:45;9.35;;;8.40;;
3101;SDS011;1561;42.666;23.392;2022-09-12T15:46:15;10.57;;;9.55;;
3101;SDS011;1561;42.666;23.392;2022-09-12T15:48:44;10.75;;;9.00;;
3101;SDS011;1561;42.666;23.392;2022-09-12T15:51:16;10.75;;;9.60;;
3101;SDS011;1561;42.666;23.392;2022-09-12T15:53:53;8.77;;;8.07;;
3101;SDS011;1561;42.666;23.392;2022-09-12T15:56:20;8.85;;;8.25;;
3101;SDS011;1561;42.666;23.392;2022-09-12T15:58:50;8.85;;;8.25;;
3101;SDS011;1561;42.666;23.392;2022-09-12T16:01:18;9.02;;;8.23;;
3101;SDS011;1561;42.666;23.392;2022-09-12T16:03:48;9.48;;;8.57;;
3101;SDS011;1561;42.666;23.392;2022-09-12T16:06:15;9.32;;;8.63;;
3101;SDS011;1561;42.666;23.392;2022-09-12T16:08:47;8.90;;;8.20;;
3101;SDS011;1561;42.666;23.392;2022-09-12T16:11:18;9.60;;;8.80;;
3101;SDS011;1561;42.666;23.392;2022-09-12T16:13:50;13.93;;;10.13;;
3101;SDS011;1561;42.666;23.392;2022-09-12T16:16:20;10.10;;;9.20;;
3101;SDS011;1561;42.666;23.392;2022-09-12T16:18:48;9.25;;;8.55;;